Home

Weather

KSLC Current Conditions

KSLC 260754Z 16003KT 10SM FEW150 11/09 A2983 RMK AO2 SLP066 T01060089 VISNO NW RNWY

KSLC Aviation Forecast

TAF KSLC 260546Z 2606/2712 22007KT P6SM SCT080 SCT150 FM260800 14007KT P6SM SCT100 FM261700 17015G25KT P6SM SCT080 BKN150 FM270100 24010KT P6SM VCSH SCT070 BKN100 FM270400 16007KT P6SM BKN100


0° F

Currently
Currently
Currently
Currently
Currently
Currently